sensor_id;sensor_type;location;lat;lon;timestamp;P1;durP1;ratioP1;P2;durP2;ratioP2
52868;SDS011;39100;53.480;6.158;2023-08-24T07:47:40;2.25;;;1.27;;
52868;SDS011;39100;53.480;6.158;2023-08-24T07:50:06;3.90;;;1.35;;
52868;SDS011;39100;53.480;6.158;2023-08-24T07:52:33;4.85;;;1.67;;
52868;SDS011;39100;53.480;6.158;2023-08-24T07:54:58;3.05;;;1.77;;
52868;SDS011;39100;53.480;6.158;2023-08-24T07:57:25;1.98;;;1.38;;
52868;SDS011;39100;53.480;6.158;2023-08-24T07:59:51;7.45;;;2.20;;
52868;SDS011;39100;53.480;6.158;2023-08-24T08:02:17;2.35;;;1.52;;
52868;SDS011;39100;53.480;6.158;2023-08-24T08:04:43;4.07;;;1.63;;
52868;SDS011;39100;53.480;6.158;2023-08-24T08:07:09;2.97;;;1.35;;
52868;SDS011;39100;53.480;6.158;2023-08-24T08:09:36;3.35;;;1.27;;
52868;SDS011;39100;53.480;6.158;2023-08-24T08:12:02;2.75;;;0.63;;
52868;SDS011;39100;53.480;6.158;2023-08-24T08:14:28;2.35;;;1.20;;
52868;SDS011;39100;53.480;6.158;2023-08-24T08:16:54;2.03;;;1.23;;
52868;SDS011;39100;53.480;6.158;2023-08-24T08:19:21;1.88;;;0.85;;
52868;SDS011;39100;53.480;6.158;2023-08-24T08:21:46;2.08;;;1.23;;
52868;SDS011;39100;53.480;6.158;2023-08-24T08:24:12;1.17;;;1.08;;
52868;SDS011;39100;53.480;6.158;2023-08-24T08:26:38;1.05;;;0.82;;
52868;SDS011;39100;53.480;6.158;2023-08-24T08:29:04;3.85;;;1.40;;
52868;SDS011;39100;53.480;6.158;2023-08-24T08:31:30;2.28;;;1.05;;
52868;SDS011;39100;53.480;6.158;2023-08-24T08:33:56;2.15;;;0.93;;
52868;SDS011;39100;53.480;6.158;2023-08-24T08:36:21;1.42;;;0.90;;
52868;SDS011;39100;53.480;6.158;2023-08-24T08:41:42;2.92;;;1.15;;
52868;SDS011;39100;53.480;6.158;2023-08-24T08:44:09;1.98;;;1.15;;
52868;SDS011;39100;53.480;6.158;2023-08-24T08:46:38;4.13;;;0.93;;
52868;SDS011;39100;53.480;6.158;2023-08-24T08:49:05;2.35;;;1.08;;
52868;SDS011;39100;53.480;6.158;2023-08-24T08:51:32;1.58;;;0.90;;
52868;SDS011;39100;53.480;6.158;2023-08-24T08:53:59;2.53;;;0.70;;
52868;SDS011;39100;53.480;6.158;2023-08-24T08:56:25;2.35;;;1.00;;
52868;SDS011;39100;53.480;6.158;2023-08-24T08:58:51;4.13;;;1.10;;
52868;SDS011;39100;53.480;6.158;2023-08-24T09:01:20;3.15;;;0.80;;
52868;SDS011;39100;53.480;6.158;2023-08-24T09:03:45;1.38;;;0.68;;
52868;SDS011;39100;53.480;6.158;2023-08-24T09:06:12;1.65;;;0.95;;
52868;SDS011;39100;53.480;6.158;2023-08-24T09:08:37;1.52;;;0.95;;
52868;SDS011;39100;53.480;6.158;2023-08-24T09:11:03;2.22;;;1.10;;
52868;SDS011;39100;53.480;6.158;2023-08-24T09:13:29;2.20;;;1.23;;
52868;SDS011;39100;53.480;6.158;2023-08-24T09:16:02;2.13;;;1.10;;
52868;SDS011;39100;53.480;6.158;2023-08-24T09:18:35;2.90;;;1.38;;
52868;SDS011;39100;53.480;6.158;2023-08-24T09:21:13;3.00;;;0.95;;
52868;SDS011;39100;53.480;6.158;2023-08-24T09:23:43;2.13;;;1.25;;
52868;SDS011;39100;53.480;6.158;2023-08-24T09:26:12;2.17;;;0.98;;
52868;SDS011;39100;53.480;6.158;2023-08-24T09:28:38;2.10;;;1.25;;
52868;SDS011;39100;53.480;6.158;2023-08-24T09:31:07;2.05;;;1.60;;
52868;SDS011;39100;53.480;6.158;2023-08-24T09:33:33;3.08;;;1.50;;
52868;SDS011;39100;53.480;6.158;2023-08-24T09:36:00;2.63;;;0.93;;
52868;SDS011;39100;53.480;6.158;2023-08-24T09:38:27;2.00;;;0.85;;
52868;SDS011;39100;53.480;6.158;2023-08-24T09:40:54;0.93;;;0.90;;
52868;SDS011;39100;53.480;6.158;2023-08-24T09:43:20;2.25;;;0.85;;
52868;SDS011;39100;53.480;6.158;2023-08-24T09:45:53;2.70;;;1.38;;
52868;SDS011;39100;53.480;6.158;2023-08-24T09:48:20;2.83;;;0.90;;
52868;SDS011;39100;53.480;6.158;2023-08-24T09:50:47;2.45;;;1.17;;
52868;SDS011;39100;53.480;6.158;2023-08-24T09:53:17;2.20;;;1.50;;
52868;SDS011;39100;53.480;6.158;2023-08-24T09:56:02;3.28;;;1.50;;
52868;SDS011;39100;53.480;6.158;2023-08-24T09:58:28;4.00;;;1.75;;
52868;SDS011;39100;53.480;6.158;2023-08-24T10:00:54;4.65;;;1.92;;
52868;SDS011;39100;53.480;6.158;2023-08-24T10:03:21;3.05;;;1.63;;
52868;SDS011;39100;53.480;6.158;2023-08-24T10:05:51;2.17;;;1.90;;
52868;SDS011;39100;53.480;6.158;2023-08-24T10:08:22;5.57;;;1.95;;
52868;SDS011;39100;53.480;6.158;2023-08-24T10:10:57;2.55;;;1.60;;
52868;SDS011;39100;53.480;6.158;2023-08-24T10:13:29;5.78;;;1.10;;
52868;SDS011;39100;53.480;6.158;2023-08-24T10:16:04;1.42;;;1.10;;
52868;SDS011;39100;53.480;6.158;2023-08-24T10:18:30;3.05;;;0.85;;
52868;SDS011;39100;53.480;6.158;2023-08-24T10:20:56;3.65;;;1.83;;
52868;SDS011;39100;53.480;6.158;2023-08-24T10:23:23;4.97;;;2.53;;
52868;SDS011;39100;53.480;6.158;2023-08-24T10:25:51;5.20;;;2.60;;
52868;SDS011;39100;53.480;6.158;2023-08-24T10:28:20;5.38;;;2.45;;
52868;SDS011;39100;53.480;6.158;2023-08-24T10:30:48;5.00;;;1.98;;
52868;SDS011;39100;53.480;6.158;2023-08-24T10:33:14;1.83;;;1.30;;
52868;SDS011;39100;53.480;6.158;2023-08-24T10:35:41;2.67;;;1.33;;
52868;SDS011;39100;53.480;6.158;2023-08-24T10:38:07;2.17;;;1.63;;
52868;SDS011;39100;53.480;6.158;2023-08-24T10:40:33;1.13;;;0.77;;
52868;SDS011;39100;53.480;6.158;2023-08-24T10:43:04;3.20;;;1.10;;
52868;SDS011;39100;53.480;6.158;2023-08-24T10:48:28;1.90;;;1.10;;
52868;SDS011;39100;53.480;6.158;2023-08-24T10:53:38;4.28;;;1.20;;
52868;SDS011;39100;53.480;6.158;2023-08-24T10:56:11;1.67;;;1.23;;
52868;SDS011;39100;53.480;6.158;2023-08-24T10:58:38;3.08;;;2.30;;
52868;SDS011;39100;53.480;6.158;2023-08-24T11:01:03;3.92;;;2.67;;
52868;SDS011;39100;53.480;6.158;2023-08-24T11:03:34;4.80;;;2.72;;
52868;SDS011;39100;53.480;6.158;2023-08-24T11:06:00;4.47;;;2.70;;
52868;SDS011;39100;53.480;6.158;2023-08-24T11:08:45;4.13;;;2.25;;
52868;SDS011;39100;53.480;6.158;2023-08-24T11:11:23;6.72;;;2.28;;
52868;SDS011;39100;53.480;6.158;2023-08-24T11:16:48;3.72;;;2.38;;
52868;SDS011;39100;53.480;6.158;2023-08-24T11:19:14;6.28;;;1.90;;
52868;SDS011;39100;53.480;6.158;2023-08-24T11:21:41;5.50;;;2.00;;
52868;SDS011;39100;53.480;6.158;2023-08-24T11:24:09;4.10;;;2.08;;
52868;SDS011;39100;53.480;6.158;2023-08-24T11:26:39;2.88;;;1.80;;
52868;SDS011;39100;53.480;6.158;2023-08-24T11:29:08;4.45;;;2.38;;
52868;SDS011;39100;53.480;6.158;2023-08-24T11:31:34;3.30;;;2.30;;
52868;SDS011;39100;53.480;6.158;2023-08-24T11:34:00;5.32;;;2.15;;
52868;SDS011;39100;53.480;6.158;2023-08-24T11:36:26;2.45;;;1.70;;
52868;SDS011;39100;53.480;6.158;2023-08-24T11:38:55;3.25;;;1.83;;
52868;SDS011;39100;53.480;6.158;2023-08-24T11:41:22;3.40;;;1.83;;
52868;SDS011;39100;53.480;6.158;2023-08-24T11:43:48;4.78;;;2.28;;
52868;SDS011;39100;53.480;6.158;2023-08-24T11:46:16;2.35;;;1.77;;
52868;SDS011;39100;53.480;6.158;2023-08-24T11:48:43;2.55;;;1.83;;
52868;SDS011;39100;53.480;6.158;2023-08-24T11:51:12;2.63;;;1.83;;
52868;SDS011;39100;53.480;6.158;2023-08-24T11:53:44;3.85;;;2.38;;
52868;SDS011;39100;53.480;6.158;2023-08-24T11:56:13;8.05;;;2.70;;
52868;SDS011;39100;53.480;6.158;2023-08-24T11:58:39;4.20;;;2.78;;
52868;SDS011;39100;53.480;6.158;2023-08-24T12:01:06;5.05;;;3.00;;
52868;SDS011;39100;53.480;6.158;2023-08-24T12:03:33;4.65;;;2.67;;
52868;SDS011;39100;53.480;6.158;2023-08-24T12:06:00;5.93;;;3.38;;
52868;SDS011;39100;53.480;6.158;2023-08-24T12:08:27;5.95;;;3.38;;
52868;SDS011;39100;53.480;6.158;2023-08-24T12:10:52;5.70;;;3.50;;
52868;SDS011;39100;53.480;6.158;2023-08-24T12:13:18;5.65;;;3.63;;
52868;SDS011;39100;53.480;6.158;2023-08-24T12:15:43;7.47;;;3.55;;
52868;SDS011;39100;53.480;6.158;2023-08-24T12:18:13;5.40;;;3.60;;
52868;SDS011;39100;53.480;6.158;2023-08-24T12:20:42;5.82;;;3.45;;
52868;SDS011;39100;53.480;6.158;2023-08-24T12:23:09;3.72;;;3.28;;
52868;SDS011;39100;53.480;6.158;2023-08-24T12:25:36;5.15;;;3.03;;
52868;SDS011;39100;53.480;6.158;2023-08-24T12:30:49;7.55;;;3.78;;
52868;SDS011;39100;53.480;6.158;2023-08-24T12:33:25;5.50;;;3.40;;
52868;SDS011;39100;53.480;6.158;2023-08-24T12:35:52;6.28;;;3.00;;
52868;SDS011;39100;53.480;6.158;2023-08-24T12:38:19;7.32;;;3.72;;
52868;SDS011;39100;53.480;6.158;2023-08-24T12:40:45;6.28;;;3.70;;
52868;SDS011;39100;53.480;6.158;2023-08-24T12:43:10;7.03;;;3.63;;
52868;SDS011;39100;53.480;6.158;2023-08-24T12:45:36;6.28;;;3.88;;
52868;SDS011;39100;53.480;6.158;2023-08-24T12:48:03;8.15;;;3.45;;
52868;SDS011;39100;53.480;6.158;2023-08-24T12:50:29;6.43;;;3.80;;
52868;SDS011;39100;53.480;6.158;2023-08-24T12:52:54;8.82;;;4.53;;
52868;SDS011;39100;53.480;6.158;2023-08-24T12:55:24;6.43;;;4.50;;
52868;SDS011;39100;53.480;6.158;2023-08-24T12:57:50;8.10;;;4.10;;
52868;SDS011;39100;53.480;6.158;2023-08-24T13:00:15;4.93;;;3.40;;
52868;SDS011;39100;53.480;6.158;2023-08-24T13:02:41;5.45;;;3.38;;
52868;SDS011;39100;53.480;6.158;2023-08-24T13:05:07;5.03;;;4.05;;
52868;SDS011;39100;53.480;6.158;2023-08-24T13:07:33;7.05;;;4.40;;
52868;SDS011;39100;53.480;6.158;2023-08-24T13:09:59;7.35;;;4.38;;
52868;SDS011;39100;53.480;6.158;2023-08-24T13:12:24;8.20;;;4.82;;
52868;SDS011;39100;53.480;6.158;2023-08-24T13:14:51;7.05;;;4.15;;
52868;SDS011;39100;53.480;6.158;2023-08-24T13:17:16;6.13;;;4.60;;
52868;SDS011;39100;53.480;6.158;2023-08-24T13:19:42;7.30;;;5.13;;
52868;SDS011;39100;53.480;6.158;2023-08-24T13:22:07;8.27;;;4.88;;
52868;SDS011;39100;53.480;6.158;2023-08-24T13:24:33;6.65;;;5.15;;
52868;SDS011;39100;53.480;6.158;2023-08-24T13:26:59;10.85;;;5.60;;
52868;SDS011;39100;53.480;6.158;2023-08-24T13:29:25;10.30;;;5.57;;
52868;SDS011;39100;53.480;6.158;2023-08-24T13:31:51;11.75;;;6.10;;
52868;SDS011;39100;53.480;6.158;2023-08-24T13:34:16;9.82;;;5.47;;
52868;SDS011;39100;53.480;6.158;2023-08-24T13:36:42;7.45;;;5.63;;
52868;SDS011;39100;53.480;6.158;2023-08-24T13:39:08;8.85;;;6.03;;
52868;SDS011;39100;53.480;6.158;2023-08-24T13:41:33;11.02;;;6.35;;
52868;SDS011;39100;53.480;6.158;2023-08-24T13:43:59;9.93;;;6.05;;
52868;SDS011;39100;53.480;6.158;2023-08-24T13:46:24;8.27;;;5.68;;
52868;SDS011;39100;53.480;6.158;2023-08-24T13:48:50;5.43;;;4.40;;
52868;SDS011;39100;53.480;6.158;2023-08-24T13:51:15;7.53;;;4.47;;
52868;SDS011;39100;53.480;6.158;2023-08-24T13:53:41;5.95;;;3.85;;
52868;SDS011;39100;53.480;6.158;2023-08-24T13:56:06;6.47;;;4.82;;
52868;SDS011;39100;53.480;6.158;2023-08-24T13:58:32;7.80;;;5.25;;
52868;SDS011;39100;53.480;6.158;2023-08-24T14:00:58;7.13;;;5.55;;
52868;SDS011;39100;53.480;6.158;2023-08-24T14:03:23;7.40;;;4.60;;
52868;SDS011;39100;53.480;6.158;2023-08-24T14:05:49;8.38;;;5.70;;
52868;SDS011;39100;53.480;6.158;2023-08-24T14:08:19;9.60;;;5.45;;
52868;SDS011;39100;53.480;6.158;2023-08-24T14:10:44;7.25;;;5.40;;
52868;SDS011;39100;53.480;6.158;2023-08-24T14:13:13;5.60;;;4.32;;
52868;SDS011;39100;53.480;6.158;2023-08-24T14:15:39;8.90;;;4.43;;
52868;SDS011;39100;53.480;6.158;2023-08-24T14:18:05;6.60;;;4.70;;
52868;SDS011;39100;53.480;6.158;2023-08-24T14:20:30;7.78;;;5.15;;
52868;SDS011;39100;53.480;6.158;2023-08-24T14:22:56;6.80;;;5.10;;
52868;SDS011;39100;53.480;6.158;2023-08-24T14:25:22;8.13;;;3.97;;
52868;SDS011;39100;53.480;6.158;2023-08-24T14:27:47;4.85;;;4.10;;
52868;SDS011;39100;53.480;6.158;2023-08-24T14:30:13;5.40;;;4.40;;
52868;SDS011;39100;53.480;6.158;2023-08-24T14:32:39;6.25;;;4.57;;
52868;SDS011;39100;53.480;6.158;2023-08-24T14:35:05;7.85;;;5.45;;
52868;SDS011;39100;53.480;6.158;2023-08-24T14:37:31;9.07;;;5.72;;
52868;SDS011;39100;53.480;6.158;2023-08-24T14:39:58;8.60;;;5.93;;
52868;SDS011;39100;53.480;6.158;2023-08-24T14:42:24;8.13;;;5.97;;
52868;SDS011;39100;53.480;6.158;2023-08-24T14:44:49;7.43;;;5.35;;
52868;SDS011;39100;53.480;6.158;2023-08-24T14:47:15;9.77;;;5.43;;
52868;SDS011;39100;53.480;6.158;2023-08-24T14:49:40;7.55;;;4.20;;
52868;SDS011;39100;53.480;6.158;2023-08-24T14:52:06;4.97;;;3.42;;
52868;SDS011;39100;53.480;6.158;2023-08-24T14:54:32;3.65;;;2.78;;
52868;SDS011;39100;53.480;6.158;2023-08-24T14:56:57;3.90;;;2.13;;
52868;SDS011;39100;53.480;6.158;2023-08-24T14:59:24;5.13;;;2.28;;
52868;SDS011;39100;53.480;6.158;2023-08-24T15:01:50;4.57;;;2.60;;
52868;SDS011;39100;53.480;6.158;2023-08-24T15:04:15;4.38;;;1.92;;
52868;SDS011;39100;53.480;6.158;2023-08-24T15:06:41;3.20;;;2.00;;
52868;SDS011;39100;53.480;6.158;2023-08-24T15:09:06;3.17;;;2.10;;
52868;SDS011;39100;53.480;6.158;2023-08-24T15:11:32;1.77;;;1.55;;
52868;SDS011;39100;53.480;6.158;2023-08-24T15:13:57;3.38;;;2.10;;
52868;SDS011;39100;53.480;6.158;2023-08-24T15:16:23;6.07;;;3.30;;
52868;SDS011;39100;53.480;6.158;2023-08-24T15:18:48;4.60;;;3.03;;
52868;SDS011;39100;53.480;6.158;2023-08-24T15:21:14;5.40;;;3.80;;
52868;SDS011;39100;53.480;6.158;2023-08-24T15:23:40;7.55;;;3.50;;
52868;SDS011;39100;53.480;6.158;2023-08-24T15:26:05;4.47;;;3.05;;
52868;SDS011;39100;53.480;6.158;2023-08-24T15:31:33;7.18;;;4.10;;
52868;SDS011;39100;53.480;6.158;2023-08-24T15:33:59;5.90;;;4.03;;
52868;SDS011;39100;53.480;6.158;2023-08-24T15:36:24;5.50;;;4.70;;
52868;SDS011;39100;53.480;6.158;2023-08-24T15:38:50;5.40;;;4.10;;
52868;SDS011;39100;53.480;6.158;2023-08-24T15:41:15;4.60;;;4.03;;
52868;SDS011;39100;53.480;6.158;2023-08-24T15:43:41;5.03;;;3.97;;
52868;SDS011;39100;53.480;6.158;2023-08-24T15:46:06;4.20;;;3.25;;
52868;SDS011;39100;53.480;6.158;2023-08-24T15:48:32;3.00;;;2.70;;
52868;SDS011;39100;53.480;6.158;2023-08-24T15:50:58;2.33;;;2.08;;
52868;SDS011;39100;53.480;6.158;2023-08-24T15:53:24;4.22;;;2.55;;
52868;SDS011;39100;53.480;6.158;2023-08-24T15:55:50;4.00;;;3.00;;
52868;SDS011;39100;53.480;6.158;2023-08-24T15:58:16;2.95;;;2.40;;
52868;SDS011;39100;53.480;6.158;2023-08-24T16:00:42;2.67;;;2.47;;
52868;SDS011;39100;53.480;6.158;2023-08-24T16:03:08;3.47;;;1.98;;
52868;SDS011;39100;53.480;6.158;2023-08-24T16:05:33;3.45;;;2.90;;
52868;SDS011;39100;53.480;6.158;2023-08-24T16:07:59;2.72;;;2.28;;
52868;SDS011;39100;53.480;6.158;2023-08-24T16:10:25;2.58;;;2.20;;
52868;SDS011;39100;53.480;6.158;2023-08-24T16:12:50;3.65;;;3.35;;
52868;SDS011;39100;53.480;6.158;2023-08-24T16:15:16;3.47;;;2.40;;
52868;SDS011;39100;53.480;6.158;2023-08-24T16:17:42;2.90;;;2.60;;
52868;SDS011;39100;53.480;6.158;2023-08-24T16:20:08;2.83;;;2.53;;
52868;SDS011;39100;53.480;6.158;2023-08-24T16:22:35;3.97;;;3.28;;
52868;SDS011;39100;53.480;6.158;2023-08-24T16:25:01;4.55;;;2.67;;
52868;SDS011;39100;53.480;6.158;2023-08-24T16:27:28;6.13;;;4.50;;
52868;SDS011;39100;53.480;6.158;2023-08-24T16:29:54;5.85;;;3.78;;
52868;SDS011;39100;53.480;6.158;2023-08-24T16:32:20;6.63;;;4.32;;
52868;SDS011;39100;53.480;6.158;2023-08-24T16:34:46;4.03;;;3.63;;
52868;SDS011;39100;53.480;6.158;2023-08-24T16:37:11;5.03;;;3.53;;
52868;SDS011;39100;53.480;6.158;2023-08-24T16:39:37;6.25;;;4.70;;
52868;SDS011;39100;53.480;6.158;2023-08-24T16:42:03;5.00;;;4.13;;
52868;SDS011;39100;53.480;6.158;2023-08-24T16:44:29;4.57;;;3.88;;
52868;SDS011;39100;53.480;6.158;2023-08-24T16:46:54;6.32;;;3.90;;
52868;SDS011;39100;53.480;6.158;2023-08-24T16:49:20;4.95;;;3.80;;
52868;SDS011;39100;53.480;6.158;2023-08-24T16:51:46;6.10;;;3.67;;
52868;SDS011;39100;53.480;6.158;2023-08-24T16:54:12;4.90;;;2.85;;
52868;SDS011;39100;53.480;6.158;2023-08-24T16:56:39;6.57;;;3.53;;
52868;SDS011;39100;53.480;6.158;2023-08-24T16:59:05;4.82;;;3.47;;
52868;SDS011;39100;53.480;6.158;2023-08-24T17:01:31;4.75;;;2.90;;
52868;SDS011;39100;53.480;6.158;2023-08-24T17:03:56;4.60;;;3.30;;
52868;SDS011;39100;53.480;6.158;2023-08-24T17:06:22;4.20;;;2.97;;
52868;SDS011;39100;53.480;6.158;2023-08-24T17:08:48;4.20;;;2.97;;
52868;SDS011;39100;53.480;6.158;2023-08-24T17:11:13;4.07;;;3.40;;
52868;SDS011;39100;53.480;6.158;2023-08-24T17:13:39;3.85;;;3.45;;
52868;SDS011;39100;53.480;6.158;2023-08-24T17:16:04;4.20;;;3.60;;
52868;SDS011;39100;53.480;6.158;2023-08-24T17:18:30;5.45;;;3.55;;
52868;SDS011;39100;53.480;6.158;2023-08-24T17:20:56;4.35;;;3.25;;
52868;SDS011;39100;53.480;6.158;2023-08-24T17:23:22;5.50;;;3.85;;
52868;SDS011;39100;53.480;6.158;2023-08-24T17:25:48;5.07;;;3.60;;
52868;SDS011;39100;53.480;6.158;2023-08-24T17:28:13;5.55;;;3.95;;
52868;SDS011;39100;53.480;6.158;2023-08-24T17:30:44;4.50;;;3.60;;
52868;SDS011;39100;53.480;6.158;2023-08-24T17:33:11;3.42;;;2.67;;
52868;SDS011;39100;53.480;6.158;2023-08-24T17:35:37;2.40;;;2.20;;
52868;SDS011;39100;53.480;6.158;2023-08-24T17:38:03;3.17;;;2.70;;
52868;SDS011;39100;53.480;6.158;2023-08-24T17:40:28;2.53;;;2.25;;
52868;SDS011;39100;53.480;6.158;2023-08-24T17:42:54;2.75;;;2.42;;
52868;SDS011;39100;53.480;6.158;2023-08-24T17:45:20;2.53;;;2.08;;
52868;SDS011;39100;53.480;6.158;2023-08-24T17:47:49;2.53;;;2.22;;
52868;SDS011;39100;53.480;6.158;2023-08-24T17:50:16;2.88;;;2.00;;
52868;SDS011;39100;53.480;6.158;2023-08-24T17:52:42;3.17;;;2.45;;
52868;SDS011;39100;53.480;6.158;2023-08-24T17:55:08;5.18;;;3.85;;
52868;SDS011;39100;53.480;6.158;2023-08-24T17:57:34;3.35;;;2.75;;
52868;SDS011;39100;53.480;6.158;2023-08-24T18:00:00;2.72;;;2.42;;
52868;SDS011;39100;53.480;6.158;2023-08-24T18:02:26;2.97;;;2.60;;
52868;SDS011;39100;53.480;6.158;2023-08-24T18:04:52;3.85;;;2.78;;
52868;SDS011;39100;53.480;6.158;2023-08-24T18:07:17;3.40;;;2.25;;
52868;SDS011;39100;53.480;6.158;2023-08-24T18:09:43;2.38;;;2.03;;
52868;SDS011;39100;53.480;6.158;2023-08-24T18:12:08;2.90;;;2.60;;
52868;SDS011;39100;53.480;6.158;2023-08-24T18:14:35;3.50;;;1.90;;
52868;SDS011;39100;53.480;6.158;2023-08-24T18:17:01;2.22;;;1.88;;
52868;SDS011;39100;53.480;6.158;2023-08-24T18:19:27;2.90;;;2.28;;
52868;SDS011;39100;53.480;6.158;2023-08-24T18:21:52;2.90;;;2.15;;
52868;SDS011;39100;53.480;6.158;2023-08-24T18:24:18;2.70;;;2.10;;
52868;SDS011;39100;53.480;6.158;2023-08-24T18:26:45;3.50;;;2.42;;
52868;SDS011;39100;53.480;6.158;2023-08-24T18:29:11;2.65;;;2.40;;
52868;SDS011;39100;53.480;6.158;2023-08-24T18:31:36;4.40;;;2.90;;
52868;SDS011;39100;53.480;6.158;2023-08-24T18:34:04;5.53;;;3.63;;
52868;SDS011;39100;53.480;6.158;2023-08-24T18:36:30;3.50;;;2.85;;
52868;SDS011;39100;53.480;6.158;2023-08-24T18:38:55;6.30;;;3.83;;
52868;SDS011;39100;53.480;6.158;2023-08-24T18:41:21;6.85;;;3.38;;
52868;SDS011;39100;53.480;6.158;2023-08-24T18:43:46;4.93;;;3.38;;
52868;SDS011;39100;53.480;6.158;2023-08-24T18:46:12;5.72;;;3.08;;
52868;SDS011;39100;53.480;6.158;2023-08-24T18:48:38;2.92;;;2.70;;
52868;SDS011;39100;53.480;6.158;2023-08-24T18:51:03;5.45;;;3.67;;
52868;SDS011;39100;53.480;6.158;2023-08-24T18:53:29;5.60;;;4.20;;
52868;SDS011;39100;53.480;6.158;2023-08-24T18:55:55;3.67;;;3.33;;
52868;SDS011;39100;53.480;6.158;2023-08-24T18:58:21;3.33;;;2.70;;
52868;SDS011;39100;53.480;6.158;2023-08-24T19:00:47;4.75;;;3.40;;
52868;SDS011;39100;53.480;6.158;2023-08-24T19:03:12;4.07;;;3.30;;
52868;SDS011;39100;53.480;6.158;2023-08-24T19:05:39;6.57;;;4.72;;
52868;SDS011;39100;53.480;6.158;2023-08-24T19:08:05;4.88;;;4.38;;
52868;SDS011;39100;53.480;6.158;2023-08-24T19:10:30;5.10;;;4.20;;
52868;SDS011;39100;53.480;6.158;2023-08-24T19:12:56;5.15;;;4.57;;
52868;SDS011;39100;53.480;6.158;2023-08-24T19:15:21;5.82;;;3.95;;
52868;SDS011;39100;53.480;6.158;2023-08-24T19:17:47;4.32;;;3.22;;
52868;SDS011;39100;53.480;6.158;2023-08-24T19:20:13;5.13;;;3.47;;
52868;SDS011;39100;53.480;6.158;2023-08-24T19:22:38;4.22;;;3.05;;
52868;SDS011;39100;53.480;6.158;2023-08-24T19:25:04;5.10;;;3.55;;
52868;SDS011;39100;53.480;6.158;2023-08-24T19:27:31;4.10;;;3.70;;
52868;SDS011;39100;53.480;6.158;2023-08-24T19:29:57;5.55;;;3.63;;
52868;SDS011;39100;53.480;6.158;2023-08-24T19:32:23;4.85;;;3.70;;
52868;SDS011;39100;53.480;6.158;2023-08-24T19:34:49;4.30;;;3.90;;
52868;SDS011;39100;53.480;6.158;2023-08-24T19:37:14;4.88;;;3.05;;
52868;SDS011;39100;53.480;6.158;2023-08-24T19:39:40;5.40;;;3.58;;
52868;SDS011;39100;53.480;6.158;2023-08-24T19:42:06;4.60;;;3.42;;
52868;SDS011;39100;53.480;6.158;2023-08-24T19:44:31;4.95;;;3.67;;
52868;SDS011;39100;53.480;6.158;2023-08-24T19:46:57;6.63;;;4.03;;
52868;SDS011;39100;53.480;6.158;2023-08-24T19:49:22;4.38;;;3.58;;
52868;SDS011;39100;53.480;6.158;2023-08-24T19:51:49;4.22;;;3.42;;
52868;SDS011;39100;53.480;6.158;2023-08-24T19:54:14;3.72;;;3.22;;
52868;SDS011;39100;53.480;6.158;2023-08-24T19:56:40;5.68;;;4.63;;
52868;SDS011;39100;53.480;6.158;2023-08-24T19:59:07;5.68;;;4.70;;
52868;SDS011;39100;53.480;6.158;2023-08-24T20:01:33;7.53;;;4.63;;
52868;SDS011;39100;53.480;6.158;2023-08-24T20:03:58;5.40;;;4.80;;
52868;SDS011;39100;53.480;6.158;2023-08-24T20:06:25;7.07;;;4.53;;
52868;SDS011;39100;53.480;6.158;2023-08-24T20:08:52;5.50;;;4.03;;
52868;SDS011;39100;53.480;6.158;2023-08-24T20:11:18;5.95;;;4.60;;
52868;SDS011;39100;53.480;6.158;2023-08-24T20:13:45;4.85;;;3.80;;
52868;SDS011;39100;53.480;6.158;2023-08-24T20:16:10;4.50;;;3.22;;
52868;SDS011;39100;53.480;6.158;2023-08-24T20:18:37;4.95;;;3.25;;
52868;SDS011;39100;53.480;6.158;2023-08-24T20:21:03;3.83;;;3.42;;
52868;SDS011;39100;53.480;6.158;2023-08-24T20:23:30;4.80;;;3.67;;
52868;SDS011;39100;53.480;6.158;2023-08-24T20:25:56;4.20;;;3.20;;
52868;SDS011;39100;53.480;6.158;2023-08-24T20:28:22;3.53;;;2.75;;
52868;SDS011;39100;53.480;6.158;2023-08-24T20:30:54;3.47;;;3.17;;
52868;SDS011;39100;53.480;6.158;2023-08-24T20:33:20;3.92;;;3.17;;
52868;SDS011;39100;53.480;6.158;2023-08-24T20:35:45;4.25;;;3.22;;
52868;SDS011;39100;53.480;6.158;2023-08-24T20:38:11;3.80;;;3.40;;
52868;SDS011;39100;53.480;6.158;2023-08-24T20:40:37;4.07;;;3.20;;
52868;SDS011;39100;53.480;6.158;2023-08-24T20:43:02;5.00;;;3.28;;
52868;SDS011;39100;53.480;6.158;2023-08-24T20:45:29;3.60;;;2.85;;
52868;SDS011;39100;53.480;6.158;2023-08-24T20:47:54;3.80;;;2.85;;
52868;SDS011;39100;53.480;6.158;2023-08-24T20:50:20;5.43;;;3.60;;
52868;SDS011;39100;53.480;6.158;2023-08-24T20:52:46;5.85;;;4.38;;
52868;SDS011;39100;53.480;6.158;2023-08-24T20:55:14;6.57;;;3.90;;
52868;SDS011;39100;53.480;6.158;2023-08-24T20:57:40;3.45;;;2.70;;
52868;SDS011;39100;53.480;6.158;2023-08-24T21:00:06;4.20;;;2.90;;
52868;SDS011;39100;53.480;6.158;2023-08-24T21:02:36;3.35;;;3.03;;
52868;SDS011;39100;53.480;6.158;2023-08-24T21:05:02;3.08;;;2.78;;
52868;SDS011;39100;53.480;6.158;2023-08-24T21:07:29;3.40;;;3.10;;
52868;SDS011;39100;53.480;6.158;2023-08-24T21:09:56;4.07;;;3.33;;
52868;SDS011;39100;53.480;6.158;2023-08-24T21:12:22;6.28;;;4.05;;
52868;SDS011;39100;53.480;6.158;2023-08-24T21:14:48;3.80;;;3.35;;
52868;SDS011;39100;53.480;6.158;2023-08-24T21:17:14;3.33;;;3.00;;
52868;SDS011;39100;53.480;6.158;2023-08-24T21:19:39;4.60;;;3.33;;
52868;SDS011;39100;53.480;6.158;2023-08-24T21:22:05;5.10;;;3.60;;
52868;SDS011;39100;53.480;6.158;2023-08-24T21:24:30;5.57;;;3.65;;
52868;SDS011;39100;53.480;6.158;2023-08-24T21:26:56;4.15;;;3.75;;
52868;SDS011;39100;53.480;6.158;2023-08-24T21:29:22;3.90;;;3.45;;
52868;SDS011;39100;53.480;6.158;2023-08-24T21:31:48;4.93;;;3.60;;
52868;SDS011;39100;53.480;6.158;2023-08-24T21:34:14;4.53;;;3.55;;
52868;SDS011;39100;53.480;6.158;2023-08-24T21:36:41;4.25;;;3.85;;
52868;SDS011;39100;53.480;6.158;2023-08-24T21:39:07;5.65;;;3.75;;
52868;SDS011;39100;53.480;6.158;2023-08-24T21:41:32;5.18;;;3.95;;
52868;SDS011;39100;53.480;6.158;2023-08-24T21:43:58;7.18;;;4.55;;
52868;SDS011;39100;53.480;6.158;2023-08-24T21:46:23;5.85;;;4.20;;
52868;SDS011;39100;53.480;6.158;2023-08-24T21:48:49;4.68;;;3.72;;
52868;SDS011;39100;53.480;6.158;2023-08-24T21:51:15;5.70;;;3.83;;
52868;SDS011;39100;53.480;6.158;2023-08-24T21:53:40;5.82;;;4.13;;
52868;SDS011;39100;53.480;6.158;2023-08-24T21:56:06;4.60;;;4.10;;
52868;SDS011;39100;53.480;6.158;2023-08-24T21:58:31;5.45;;;4.45;;
52868;SDS011;39100;53.480;6.158;2023-08-24T22:00:58;5.65;;;3.85;;
52868;SDS011;39100;53.480;6.158;2023-08-24T22:03:28;5.22;;;3.92;;
52868;SDS011;39100;53.480;6.158;2023-08-24T22:05:54;3.63;;;3.30;;
52868;SDS011;39100;53.480;6.158;2023-08-24T22:08:20;7.75;;;4.30;;
52868;SDS011;39100;53.480;6.158;2023-08-24T22:10:45;5.60;;;3.85;;
52868;SDS011;39100;53.480;6.158;2023-08-24T22:13:11;6.53;;;4.50;;
52868;SDS011;39100;53.480;6.158;2023-08-24T22:15:37;3.95;;;3.53;;
52868;SDS011;39100;53.480;6.158;2023-08-24T22:18:02;3.95;;;3.50;;
52868;SDS011;39100;53.480;6.158;2023-08-24T22:20:28;4.55;;;3.53;;
52868;SDS011;39100;53.480;6.158;2023-08-24T22:22:54;4.43;;;3.58;;
52868;SDS011;39100;53.480;6.158;2023-08-24T22:25:19;4.22;;;3.80;;
52868;SDS011;39100;53.480;6.158;2023-08-24T22:27:45;6.13;;;3.83;;
52868;SDS011;39100;53.480;6.158;2023-08-24T22:30:11;3.78;;;3.47;;
52868;SDS011;39100;53.480;6.158;2023-08-24T22:32:39;3.75;;;3.35;;
52868;SDS011;39100;53.480;6.158;2023-08-24T22:35:05;3.67;;;3.22;;
52868;SDS011;39100;53.480;6.158;2023-08-24T22:37:32;5.15;;;3.75;;
52868;SDS011;39100;53.480;6.158;2023-08-24T22:39:57;5.35;;;3.35;;
52868;SDS011;39100;53.480;6.158;2023-08-24T22:44:55;4.68;;;4.10;;
52868;SDS011;39100;53.480;6.158;2023-08-24T22:47:20;5.28;;;3.95;;
52868;SDS011;39100;53.480;6.158;2023-08-24T22:49:46;4.80;;;4.15;;